Time;durP1;ratioP1;P1;durP2;ratioP2;P2;SDS_P1;SDS_P2;PMS_P1;PMS_P2;Temp;Humidity;BMP_temperature;BMP_pressure;BME280_temperature;BME280_humidity;BME280_pressure;Samples;Min_cycle;Max_cycle;Signal;HPM_P1;HPM_P2
2023/09/01 00:00:49;;;;;;;3.70;2.00;;;;;;;;;;5072678;28;20047;-73
2023/09/01 00:03:16;;;;;;;6.57;2.05;;;;;;;;;;5071354;28;20043;-73
2023/09/01 00:05:42;;;;;;;2.88;1.90;;;;;;;;;;5070704;28;20114;-73
2023/09/01 00:08:08;;;;;;;2.80;2.22;;;;;;;;;;5070493;28;20048;-73
2023/09/01 00:10:39;;;;;;;4.00;2.22;;;;;;;;;;5088613;28;20040;-73
2023/09/01 00:13:05;;;;;;;4.25;2.00;;;;;;;;;;5089739;28;20052;-73
2023/09/01 00:15:33;;;;;;;4.82;2.33;;;;;;;;;;5089021;28;20145;-73
2023/09/01 00:17:59;;;;;;;3.70;2.00;;;;;;;;;;5088393;28;20035;-73
2023/09/01 00:20:25;;;;;;;2.25;1.70;;;;;;;;;;5087567;28;20126;-76
2023/09/01 00:22:51;;;;;;;2.63;2.03;;;;;;;;;;5071860;28;20048;-75
2023/09/01 00:25:17;;;;;;;2.20;2.00;;;;;;;;;;5092852;28;20097;-75
2023/09/01 00:27:43;;;;;;;3.35;2.13;;;;;;;;;;5066513;28;20044;-75
2023/09/01 00:30:09;;;;;;;2.95;1.98;;;;;;;;;;5080899;28;20040;-76
2023/09/01 00:32:36;;;;;;;3.45;2.05;;;;;;;;;;5084348;28;20093;-76
2023/09/01 00:35:03;;;;;;;3.60;2.08;;;;;;;;;;5085284;28;20048;-76
2023/09/01 00:37:29;;;;;;;3.50;2.00;;;;;;;;;;5086877;28;20128;-75
2023/09/01 00:39:55;;;;;;;5.22;2.17;;;;;;;;;;5064425;28;20051;-76
2023/09/01 00:42:21;;;;;;;3.47;2.10;;;;;;;;;;5083529;28;20152;-76
2023/09/01 00:44:48;;;;;;;3.38;2.05;;;;;;;;;;5086336;28;20052;-76
2023/09/01 00:47:14;;;;;;;5.15;2.33;;;;;;;;;;5068806;28;20078;-75
2023/09/01 00:49:40;;;;;;;3.50;2.30;;;;;;;;;;5071904;28;20399;-75
2023/09/01 00:52:07;;;;;;;4.75;2.40;;;;;;;;;;5087127;28;20064;-75
2023/09/01 00:54:33;;;;;;;5.60;2.50;;;;;;;;;;5088963;28;20072;-75
2023/09/01 00:57:00;;;;;;;3.63;2.38;;;;;;;;;;5090593;28;20414;-75
2023/09/01 00:59:26;;;;;;;4.65;2.50;;;;;;;;;;5079818;28;20442;-75
2023/09/01 01:01:52;;;;;;;3.13;2.30;;;;;;;;;;5085284;28;20036;-75
2023/09/01 01:04:20;;;;;;;4.45;2.33;;;;;;;;;;5066506;28;20055;-75
2023/09/01 01:06:47;;;;;;;4.28;2.47;;;;;;;;;;5069445;28;20043;-75
2023/09/01 01:09:38;;;;;;;4.75;2.47;;;;;;;;;;5068067;28;20054;-75
2023/09/01 01:12:05;;;;;;;3.92;2.47;;;;;;;;;;5067855;28;20491;-75
2023/09/01 01:14:46;;;;;;;4.97;3.05;;;;;;;;;;5066040;28;20080;-75
2023/09/01 01:17:12;;;;;;;4.35;3.20;;;;;;;;;;5084635;28;20395;-75
2023/09/01 01:19:53;;;;;;;3.47;2.97;;;;;;;;;;5083497;28;20045;-76
2023/09/01 01:22:35;;;;;;;4.28;2.90;;;;;;;;;;5085912;28;20052;-76
2023/09/01 01:25:04;;;;;;;3.38;3.00;;;;;;;;;;5068106;28;20117;-75
2023/09/01 01:27:31;;;;;;;4.18;2.75;;;;;;;;;;5068692;28;20048;-75
2023/09/01 01:29:57;;;;;;;4.40;3.60;;;;;;;;;;5074193;28;20040;-76
2023/09/01 01:32:23;;;;;;;3.53;3.00;;;;;;;;;;5082322;28;20118;-75
2023/09/01 01:34:54;;;;;;;3.33;3.03;;;;;;;;;;5086413;28;20055;-75
2023/09/01 01:37:27;;;;;;;3.72;3.30;;;;;;;;;;5089726;28;20054;-75
2023/09/01 01:39:53;;;;;;;;;;;;;;;;;;5081869;28;20514;-76
2023/09/01 01:42:19;;;;;;;7.07;3.40;;;;;;;;;;5091112;28;19951;-76
2023/09/01 01:44:48;;;;;;;5.47;3.83;;;;;;;;;;5090699;28;20044;-75
2023/09/01 01:47:14;;;;;;;6.10;3.55;;;;;;;;;;5088959;28;20048;-75
2023/09/01 01:49:40;;;;;;;7.40;3.63;;;;;;;;;;5086979;28;20075;-75
2023/09/01 01:52:06;;;;;;;6.28;3.67;;;;;;;;;;5091887;28;20040;-75
2023/09/01 01:54:33;;;;;;;5.25;3.90;;;;;;;;;;5085733;28;20109;-75
2023/09/01 01:56:59;;;;;;;5.88;3.95;;;;;;;;;;5082991;28;20566;-75
2023/09/01 01:59:25;;;;;;;6.13;4.07;;;;;;;;;;5082039;28;20109;-75
2023/09/01 02:01:51;;;;;;;4.90;3.90;;;;;;;;;;5080221;28;20064;-75
2023/09/01 02:04:17;;;;;;;4.68;3.78;;;;;;;;;;5060450;28;20059;-75
2023/09/01 02:06:43;;;;;;;4.50;3.63;;;;;;;;;;5061846;28;20040;-75
2023/09/01 02:09:10;;;;;;;4.13;3.55;;;;;;;;;;5064296;28;20040;-75
2023/09/01 02:11:36;;;;;;;5.93;4.00;;;;;;;;;;5081920;28;20048;-76
2023/09/01 02:14:02;;;;;;;5.75;4.25;;;;;;;;;;5085089;28;20044;-75
2023/09/01 02:16:28;;;;;;;5.47;3.92;;;;;;;;;;5062441;28;20093;-75
2023/09/01 02:18:56;;;;;;;7.18;4.03;;;;;;;;;;5084966;28;20358;-76
2023/09/01 02:21:22;;;;;;;5.63;3.60;;;;;;;;;;5061327;28;20052;-76
2023/09/01 02:23:48;;;;;;;7.22;3.92;;;;;;;;;;5081097;28;20491;-75
2023/09/01 02:26:21;;;;;;;4.93;4.00;;;;;;;;;;5081021;28;20521;-75
2023/09/01 02:28:47;;;;;;;5.35;4.05;;;;;;;;;;5060153;28;20086;-76
2023/09/01 02:31:14;;;;;;;4.20;3.80;;;;;;;;;;5078886;28;20139;-75
2023/09/01 02:33:40;;;;;;;6.43;4.05;;;;;;;;;;5068555;28;20540;-75
2023/09/01 02:36:28;;;;;;;6.40;4.55;;;;;;;;;;5089752;28;20054;-76
2023/09/01 02:38:55;;;;;;;6.53;4.35;;;;;;;;;;5083578;28;20079;-75
2023/09/01 02:41:21;;;;;;;5.25;4.00;;;;;;;;;;5074610;28;20048;-76
2023/09/01 02:43:47;;;;;;;4.10;3.67;;;;;;;;;;5093696;28;20073;-75
2023/09/01 02:46:14;;;;;;;3.88;3.50;;;;;;;;;;5093242;28;20438;-75
2023/09/01 02:48:40;;;;;;;5.18;3.90;;;;;;;;;;5092703;28;20044;-75
2023/09/01 02:51:06;;;;;;;8.55;4.47;;;;;;;;;;5075011;28;20097;-75
2023/09/01 02:53:33;;;;;;;4.25;3.80;;;;;;;;;;5094166;28;20055;-75
2023/09/01 02:55:59;;;;;;;5.63;4.32;;;;;;;;;;5090544;28;20044;-75
2023/09/01 02:58:25;;;;;;;6.03;4.40;;;;;;;;;;5091993;28;20066;-75
2023/09/01 03:00:51;;;;;;;7.13;5.07;;;;;;;;;;5090088;28;20129;-75
2023/09/01 03:03:20;;;;;;;5.60;4.65;;;;;;;;;;5092051;28;20076;-75
2023/09/01 03:05:48;;;;;;;6.72;5.03;;;;;;;;;;5086407;28;20475;-75
2023/09/01 03:08:14;;;;;;;6.13;4.50;;;;;;;;;;5072064;28;20108;-75
2023/09/01 03:10:41;;;;;;;7.13;4.43;;;;;;;;;;5083078;28;20060;-75
2023/09/01 03:13:07;;;;;;;6.97;5.03;;;;;;;;;;5088790;28;20056;-75
2023/09/01 03:15:33;;;;;;;6.10;4.82;;;;;;;;;;5088618;28;20126;-75
2023/09/01 03:17:59;;;;;;;7.00;4.95;;;;;;;;;;5090831;28;20411;-74
2023/09/01 03:20:25;;;;;;;7.75;5.13;;;;;;;;;;5087259;28;20048;-75
2023/09/01 03:22:51;;;;;;;7.05;5.00;;;;;;;;;;5071508;28;20044;-75
2023/09/01 03:25:18;;;;;;;6.60;5.38;;;;;;;;;;5090250;28;20055;-75
2023/09/01 03:27:44;;;;;;;9.05;5.00;;;;;;;;;;5081436;28;20047;-75
2023/09/01 03:30:11;;;;;;;6.53;4.82;;;;;;;;;;5086429;28;20398;-74
2023/09/01 03:32:37;;;;;;;5.38;4.60;;;;;;;;;;5073241;28;20040;-75
2023/09/01 03:35:04;;;;;;;7.65;5.20;;;;;;;;;;5089942;28;20055;-75
2023/09/01 03:37:30;;;;;;;6.28;4.93;;;;;;;;;;5088850;28;20052;-75
2023/09/01 03:39:56;;;;;;;8.60;5.20;;;;;;;;;;5089914;28;20051;-75
2023/09/01 03:42:22;;;;;;;6.30;4.90;;;;;;;;;;5071654;28;20040;-75
2023/09/01 03:44:48;;;;;;;6.43;5.22;;;;;;;;;;5069308;28;21117;-75
2023/09/01 03:47:14;;;;;;;5.72;5.15;;;;;;;;;;5088803;28;20035;-76
2023/09/01 03:49:41;;;;;;;5.68;5.07;;;;;;;;;;5067427;28;20075;-75
2023/09/01 03:52:07;;;;;;;6.20;5.40;;;;;;;;;;5066818;28;20053;-75
2023/09/01 03:54:33;;;;;;;6.03;5.10;;;;;;;;;;5088376;28;20086;-74
2023/09/01 03:56:59;;;;;;;5.40;4.90;;;;;;;;;;5085336;28;20040;-75
2023/09/01 03:59:25;;;;;;;10.05;4.97;;;;;;;;;;5068144;28;20067;-75
2023/09/01 04:01:51;;;;;;;8.20;5.45;;;;;;;;;;5084221;28;20043;-75
2023/09/01 04:04:18;;;;;;;7.20;5.60;;;;;;;;;;5081949;28;20044;-75
2023/09/01 04:06:44;;;;;;;7.32;5.30;;;;;;;;;;5082340;28;20079;-75
2023/09/01 04:09:11;;;;;;;9.18;5.53;;;;;;;;;;5083990;28;20067;-75
2023/09/01 04:11:37;;;;;;;6.05;5.20;;;;;;;;;;5085692;28;20056;-75
2023/09/01 04:14:03;;;;;;;8.70;5.25;;;;;;;;;;5066558;28;20135;-75
2023/09/01 04:16:29;;;;;;;7.93;5.18;;;;;;;;;;5083578;28;20056;-75
2023/09/01 04:18:56;;;;;;;8.60;5.30;;;;;;;;;;5084875;28;20028;-76
2023/09/01 04:21:22;;;;;;;6.65;5.50;;;;;;;;;;5066823;28;20798;-76
2023/09/01 04:23:48;;;;;;;7.63;5.40;;;;;;;;;;5069251;28;20105;-75
2023/09/01 04:26:15;;;;;;;6.95;5.60;;;;;;;;;;5087908;28;20047;-75
2023/09/01 04:28:41;;;;;;;8.02;5.82;;;;;;;;;;5088679;28;20119;-75
2023/09/01 04:31:43;;;;;;;8.70;5.80;;;;;;;;;;5083787;28;20040;-75
2023/09/01 04:34:10;;;;;;;8.27;6.25;;;;;;;;;;5023296;28;20441;-75
2023/09/01 04:36:36;;;;;;;13.30;5.78;;;;;;;;;;5072244;28;20823;-75
2023/09/01 04:39:04;;;;;;;7.47;5.65;;;;;;;;;;5087362;28;20055;-75
2023/09/01 04:41:32;;;;;;;8.43;5.43;;;;;;;;;;5086410;28;20044;-75
2023/09/01 04:43:58;;;;;;;6.95;5.40;;;;;;;;;;5087379;28;20044;-75
2023/09/01 04:46:27;;;;;;;7.32;5.60;;;;;;;;;;5090399;28;20051;-76
2023/09/01 04:48:53;;;;;;;6.28;5.35;;;;;;;;;;5090832;28;20521;-76
2023/09/01 04:51:19;;;;;;;8.20;6.57;;;;;;;;;;5084393;28;20044;-75
2023/09/01 04:53:45;;;;;;;9.02;6.22;;;;;;;;;;5087143;28;20083;-75
2023/09/01 04:56:11;;;;;;;7.28;5.72;;;;;;;;;;5088103;28;20062;-75
2023/09/01 04:58:37;;;;;;;6.55;5.93;;;;;;;;;;5086507;28;20043;-75
2023/09/01 05:01:03;;;;;;;10.10;6.40;;;;;;;;;;5067168;28;20040;-75
2023/09/01 05:03:29;;;;;;;6.93;5.50;;;;;;;;;;5086995;28;20052;-75
2023/09/01 05:05:56;;;;;;;7.43;5.97;;;;;;;;;;5070006;28;20391;-75
2023/09/01 05:08:22;;;;;;;9.55;5.80;;;;;;;;;;5088208;28;20451;-75
2023/09/01 05:10:48;;;;;;;7.78;6.03;;;;;;;;;;5068231;28;20063;-76
2023/09/01 05:13:14;;;;;;;7.75;5.85;;;;;;;;;;5065658;28;20044;-75
2023/09/01 05:15:40;;;;;;;8.23;7.00;;;;;;;;;;5084766;28;20167;-74
2023/09/01 05:18:06;;;;;;;10.70;6.85;;;;;;;;;;5088443;28;20040;-75
2023/09/01 05:20:32;;;;;;;8.88;6.82;;;;;;;;;;5067842;28;20139;-75
2023/09/01 05:22:59;;;;;;;10.85;6.82;;;;;;;;;;5084338;28;20127;-75
2023/09/01 05:25:25;;;;;;;10.65;6.38;;;;;;;;;;5087534;28;20040;-75
2023/09/01 05:27:51;;;;;;;8.00;6.45;;;;;;;;;;5083937;28;20238;-75
2023/09/01 05:30:17;;;;;;;9.18;7.07;;;;;;;;;;5083603;28;20048;-75
2023/09/01 05:32:43;;;;;;;9.15;6.85;;;;;;;;;;5087236;28;20136;-75
2023/09/01 05:35:09;;;;;;;10.88;7.30;;;;;;;;;;5091047;28;20036;-75
2023/09/01 05:37:35;;;;;;;10.73;7.10;;;;;;;;;;5068910;28;20040;-75
2023/09/01 05:40:01;;;;;;;10.73;7.82;;;;;;;;;;5089406;28;20051;-76
2023/09/01 05:42:27;;;;;;;10.30;7.57;;;;;;;;;;5066839;28;20137;-75
2023/09/01 05:44:53;;;;;;;12.48;7.20;;;;;;;;;;5067202;28;20408;-76
2023/09/01 05:47:19;;;;;;;10.75;7.40;;;;;;;;;;5083595;28;20042;-75
2023/09/01 05:49:45;;;;;;;13.85;7.50;;;;;;;;;;5089509;28;20491;-75
2023/09/01 05:52:11;;;;;;;9.18;6.93;;;;;;;;;;5059790;28;20071;-75
2023/09/01 05:54:37;;;;;;;12.90;7.68;;;;;;;;;;5073788;28;20048;-75
2023/09/01 05:57:04;;;;;;;10.02;6.68;;;;;;;;;;5081620;28;20040;-75
2023/09/01 05:59:30;;;;;;;11.63;7.03;;;;;;;;;;5070652;28;20048;-75
2023/09/01 06:01:56;;;;;;;11.27;7.90;;;;;;;;;;5063086;28;20040;-75
2023/09/01 06:04:22;;;;;;;8.65;7.28;;;;;;;;;;5076011;28;20071;-75
2023/09/01 06:06:48;;;;;;;10.38;7.20;;;;;;;;;;5083228;28;20368;-75
2023/09/01 06:09:14;;;;;;;9.15;6.90;;;;;;;;;;5084700;28;20502;-75
2023/09/01 06:11:40;;;;;;;9.32;6.72;;;;;;;;;;5068898;28;20131;-76
2023/09/01 06:14:06;;;;;;;12.27;6.85;;;;;;;;;;5069876;28;20051;-75
2023/09/01 06:16:32;;;;;;;9.98;6.97;;;;;;;;;;5086714;28;20411;-75
2023/09/01 06:19:03;;;;;;;9.10;7.53;;;;;;;;;;5085158;28;20055;-75
2023/09/01 06:21:30;;;;;;;10.07;6.47;;;;;;;;;;5091529;28;20068;-75
2023/09/01 06:23:56;;;;;;;10.15;6.70;;;;;;;;;;5094229;28;20051;-75
2023/09/01 06:26:22;;;;;;;9.48;6.80;;;;;;;;;;5073726;28;20048;-76
2023/09/01 06:28:49;;;;;;;10.77;6.90;;;;;;;;;;5098992;28;20039;-75
2023/09/01 06:31:16;;;;;;;8.80;6.88;;;;;;;;;;5098609;28;20047;-75
2023/09/01 06:33:43;;;;;;;10.25;6.97;;;;;;;;;;5074950;28;20051;-75
2023/09/01 06:36:10;;;;;;;10.27;5.97;;;;;;;;;;5092592;28;20445;-76
2023/09/01 06:38:36;;;;;;;8.25;6.25;;;;;;;;;;5092293;28;20047;-76
2023/09/01 06:41:03;;;;;;;8.10;5.78;;;;;;;;;;5092007;28;20101;-75
2023/09/01 06:43:32;;;;;;;8.88;6.28;;;;;;;;;;5091991;28;20044;-75
2023/09/01 06:45:58;;;;;;;9.50;6.15;;;;;;;;;;5089665;28;20039;-76
2023/09/01 06:48:25;;;;;;;9.98;6.10;;;;;;;;;;5094090;28;20463;-76
2023/09/01 06:50:51;;;;;;;9.05;5.97;;;;;;;;;;5094835;28;20491;-76
2023/09/01 06:53:17;;;;;;;11.35;5.97;;;;;;;;;;5092613;28;20051;-75
2023/09/01 06:55:47;;;;;;;8.05;6.10;;;;;;;;;;5084639;28;20048;-75
2023/09/01 06:58:13;;;;;;;8.57;6.05;;;;;;;;;;5081962;28;20045;-75
2023/09/01 07:00:39;;;;;;;8.50;5.97;;;;;;;;;;5087453;28;20097;-75
2023/09/01 07:03:05;;;;;;;9.23;6.57;;;;;;;;;;5088599;28;20032;-76
2023/09/01 07:05:31;;;;;;;9.45;6.45;;;;;;;;;;5085158;28;20052;-75
2023/09/01 07:07:57;;;;;;;8.60;6.30;;;;;;;;;;5071837;28;20047;-75
2023/09/01 07:10:23;;;;;;;9.77;5.90;;;;;;;;;;5092077;28;20047;-75
2023/09/01 07:12:49;;;;;;;8.10;5.85;;;;;;;;;;5091719;28;20139;-75
2023/09/01 07:15:16;;;;;;;8.02;6.10;;;;;;;;;;5091573;28;20084;-75
2023/09/01 07:17:42;;;;;;;9.18;6.55;;;;;;;;;;5074553;28;20047;-75
2023/09/01 07:20:10;;;;;;;10.07;6.10;;;;;;;;;;5082602;28;20060;-75
2023/09/01 07:22:36;;;;;;;10.05;5.90;;;;;;;;;;5082515;28;20071;-75
2023/09/01 07:25:04;;;;;;;12.32;5.97;;;;;;;;;;5083780;28;20093;-76
2023/09/01 07:27:30;;;;;;;8.50;5.90;;;;;;;;;;5070827;28;20401;-75
2023/09/01 07:29:56;;;;;;;8.00;5.70;;;;;;;;;;5080353;28;20402;-76
2023/09/01 07:32:22;;;;;;;8.48;5.80;;;;;;;;;;5088418;28;20040;-75
2023/09/01 07:34:48;;;;;;;7.38;5.50;;;;;;;;;;5087785;28;20134;-75
2023/09/01 07:37:14;;;;;;;7.95;5.32;;;;;;;;;;5080531;28;20049;-76
2023/09/01 07:39:40;;;;;;;8.38;5.97;;;;;;;;;;5066284;28;20044;-76
2023/09/01 07:42:07;;;;;;;7.68;5.53;;;;;;;;;;5072977;28;20085;-76
2023/09/01 07:44:33;;;;;;;8.38;6.28;;;;;;;;;;5086940;28;20460;-76
2023/09/01 07:46:59;;;;;;;7.10;5.72;;;;;;;;;;5088062;28;20043;-75
2023/09/01 07:49:25;;;;;;;8.38;5.78;;;;;;;;;;5086274;28;20045;-77
2023/09/01 07:51:51;;;;;;;8.23;5.65;;;;;;;;;;5085950;28;20043;-77
2023/09/01 07:54:17;;;;;;;10.90;6.20;;;;;;;;;;5076721;28;20052;-77
2023/09/01 07:56:43;;;;;;;7.45;5.32;;;;;;;;;;5083167;28;20047;-77
2023/09/01 07:59:09;;;;;;;7.30;5.18;;;;;;;;;;5082244;28;20047;-76
2023/09/01 08:01:35;;;;;;;9.57;5.63;;;;;;;;;;5069603;28;20050;-77
2023/09/01 08:04:02;;;;;;;7.88;5.63;;;;;;;;;;5088052;28;20051;-76
2023/09/01 08:06:31;;;;;;;9.68;5.53;;;;;;;;;;5074178;28;20048;-76
2023/09/01 08:08:57;;;;;;;8.25;5.43;;;;;;;;;;5082056;28;20040;-77
2023/09/01 08:11:23;;;;;;;7.80;5.40;;;;;;;;;;5082330;28;20101;-77
2023/09/01 08:13:49;;;;;;;9.10;5.57;;;;;;;;;;5085193;28;20039;-77
2023/09/01 08:16:17;;;;;;;10.65;5.57;;;;;;;;;;5082786;28;20059;-77
2023/09/01 08:18:43;;;;;;;7.38;5.28;;;;;;;;;;5082123;28;20044;-76
2023/09/01 08:21:09;;;;;;;12.15;5.30;;;;;;;;;;5064107;28;20130;-77
2023/09/01 08:23:35;;;;;;;7.38;5.85;;;;;;;;;;5070617;28;20044;-76
2023/09/01 08:26:05;;;;;;;7.53;5.75;;;;;;;;;;5086643;28;20055;-76
2023/09/01 08:28:31;;;;;;;8.48;5.90;;;;;;;;;;5092788;28;20040;-76
2023/09/01 08:31:15;;;;;;;9.25;6.35;;;;;;;;;;5065423;28;20123;-76
2023/09/01 08:33:41;;;;;;;8.45;5.78;;;;;;;;;;5071277;28;20044;-77
2023/09/01 08:36:08;;;;;;;8.68;5.43;;;;;;;;;;5075429;28;20040;-76
2023/09/01 08:38:35;;;;;;;8.23;6.10;;;;;;;;;;5089318;28;20066;-77
2023/09/01 08:41:04;;;;;;;7.18;5.72;;;;;;;;;;5070198;28;20059;-76
2023/09/01 08:43:34;;;;;;;8.85;5.03;;;;;;;;;;5085484;28;20047;-76
2023/09/01 08:46:01;;;;;;;7.78;5.10;;;;;;;;;;5089278;28;20043;-76
2023/09/01 08:48:27;;;;;;;10.02;5.80;;;;;;;;;;5087853;28;20052;-77
2023/09/01 08:50:54;;;;;;;9.18;5.28;;;;;;;;;;5068466;28;20051;-77
2023/09/01 08:53:20;;;;;;;8.52;5.60;;;;;;;;;;5058419;28;20050;-77
2023/09/01 08:55:48;;;;;;;8.35;5.72;;;;;;;;;;5091754;28;20043;-77
2023/09/01 08:58:15;;;;;;;8.27;5.32;;;;;;;;;;5087670;28;20040;-77
2023/09/01 09:00:41;;;;;;;7.43;5.22;;;;;;;;;;5088660;28;20043;-77
2023/09/01 09:03:07;;;;;;;7.93;5.10;;;;;;;;;;5088956;28;20056;-77
2023/09/01 09:05:34;;;;;;;8.82;5.72;;;;;;;;;;5090624;28;20048;-77
2023/09/01 09:08:04;;;;;;;10.60;5.25;;;;;;;;;;5085403;28;20400;-77
2023/09/01 09:10:34;;;;;;;8.18;4.78;;;;;;;;;;5091276;28;20047;-77
2023/09/01 09:13:00;;;;;;;7.70;4.90;;;;;;;;;;5083413;28;20527;-77
2023/09/01 09:15:26;;;;;;;6.28;4.28;;;;;;;;;;5090230;28;20097;-76
2023/09/01 09:17:53;;;;;;;6.50;4.50;;;;;;;;;;5088759;28;20578;-77
2023/09/01 09:20:22;;;;;;;6.93;4.28;;;;;;;;;;5088951;28;20994;-76
2023/09/01 09:22:52;;;;;;;7.78;4.22;;;;;;;;;;5087462;28;20372;-77
2023/09/01 09:25:29;;;;;;;9.43;4.40;;;;;;;;;;5088019;28;20120;-77
2023/09/01 09:28:02;;;;;;;8.68;4.00;;;;;;;;;;5089597;28;20036;-77
2023/09/01 09:30:28;;;;;;;4.72;3.80;;;;;;;;;;5089731;28;20104;-77
2023/09/01 09:33:02;;;;;;;6.13;3.75;;;;;;;;;;5088167;28;20155;-77
2023/09/01 09:35:28;;;;;;;4.47;3.40;;;;;;;;;;5090690;28;20499;-77
2023/09/01 09:37:58;;;;;;;6.00;4.15;;;;;;;;;;5091193;28;20429;-77
2023/09/01 09:40:24;;;;;;;4.82;3.33;;;;;;;;;;5065439;28;20465;-76
2023/09/01 09:42:50;;;;;;;6.25;3.78;;;;;;;;;;5074239;28;20040;-77
2023/09/01 09:45:26;;;;;;;4.13;2.85;;;;;;;;;;5092734;28;20047;-77
2023/09/01 09:47:53;;;;;;;6.47;3.50;;;;;;;;;;5091787;28;20430;-77
2023/09/01 09:50:20;;;;;;;6.93;3.20;;;;;;;;;;5091575;28;20158;-76
2023/09/01 09:52:49;;;;;;;5.53;3.00;;;;;;;;;;5092337;28;20033;-76
2023/09/01 09:55:23;;;;;;;6.38;3.55;;;;;;;;;;5087086;28;20082;-77
2023/09/01 09:57:50;;;;;;;5.40;3.60;;;;;;;;;;5094458;28;20082;-77
2023/09/01 10:00:17;;;;;;;5.97;3.85;;;;;;;;;;5093191;28;20046;-77
2023/09/01 10:02:48;;;;;;;5.78;3.50;;;;;;;;;;5075675;28;20044;-76
2023/09/01 10:05:15;;;;;;;10.93;3.42;;;;;;;;;;5071017;28;20062;-76
2023/09/01 10:07:41;;;;;;;3.88;3.00;;;;;;;;;;5084803;28;20111;-76
2023/09/01 10:10:08;;;;;;;6.95;3.05;;;;;;;;;;5087975;28;20043;-77
2023/09/01 10:12:35;;;;;;;4.78;3.10;;;;;;;;;;5070760;28;20097;-75
2023/09/01 10:15:03;;;;;;;5.60;3.25;;;;;;;;;;5067958;28;20514;-73
2023/09/01 10:17:30;;;;;;;4.80;2.90;;;;;;;;;;5092202;28;20078;-73
2023/09/01 10:19:56;;;;;;;5.43;3.42;;;;;;;;;;5092889;28;20064;-73
2023/09/01 10:22:22;;;;;;;4.65;2.70;;;;;;;;;;5074606;28;20052;-74
2023/09/01 10:25:07;;;;;;;5.43;2.83;;;;;;;;;;5089490;28;20050;-73
2023/09/01 10:27:33;;;;;;;3.55;2.70;;;;;;;;;;5104988;28;20391;-73
2023/09/01 10:29:59;;;;;;;4.38;3.15;;;;;;;;;;5073746;28;20048;-73
2023/09/01 10:32:28;;;;;;;4.75;3.10;;;;;;;;;;5098064;28;20044;-73
2023/09/01 10:34:55;;;;;;;3.80;2.70;;;;;;;;;;5093755;28;20044;-74
2023/09/01 10:37:30;;;;;;;4.22;2.65;;;;;;;;;;5088536;28;20055;-73
2023/09/01 10:39:56;;;;;;;4.93;2.60;;;;;;;;;;5092862;28;20391;-74
2023/09/01 10:42:38;;;;;;;4.40;2.95;;;;;;;;;;5075112;28;20071;-73
2023/09/01 10:45:06;;;;;;;7.45;3.00;;;;;;;;;;5091860;28;20036;-74
2023/09/01 10:47:32;;;;;;;3.25;2.47;;;;;;;;;;5093563;28;20039;-73
2023/09/01 10:49:58;;;;;;;5.22;2.38;;;;;;;;;;5086619;28;20173;-73
2023/09/01 10:52:24;;;;;;;2.80;2.20;;;;;;;;;;5090659;28;20119;-74
2023/09/01 10:55:05;;;;;;;4.15;2.45;;;;;;;;;;5086094;28;20036;-74
2023/09/01 10:57:43;;;;;;;3.60;2.60;;;;;;;;;;5091178;28;20092;-74
2023/09/01 11:00:25;;;;;;;5.72;2.83;;;;;;;;;;5071618;28;20139;-74
2023/09/01 11:02:51;;;;;;;5.53;2.77;;;;;;;;;;5087920;28;20048;-74
2023/09/01 11:05:37;;;;;;;4.03;2.65;;;;;;;;;;5088278;28;20040;-73
2023/09/01 11:08:17;;;;;;;7.95;2.83;;;;;;;;;;5095952;28;20396;-73
2023/09/01 11:10:43;;;;;;;4.63;2.70;;;;;;;;;;5068094;28;20395;-74
2023/09/01 11:13:16;;;;;;;7.25;3.00;;;;;;;;;;5091847;28;20062;-73
2023/09/01 11:15:45;;;;;;;4.50;2.45;;;;;;;;;;5063503;28;20147;-74
2023/09/01 11:18:24;;;;;;;4.70;2.75;;;;;;;;;;5090387;28;20089;-74
2023/09/01 11:20:54;;;;;;;6.13;2.70;;;;;;;;;;5090282;28;20040;-74
2023/09/01 11:23:21;;;;;;;8.00;2.92;;;;;;;;;;5073190;28;20127;-74
2023/09/01 11:25:57;;;;;;;3.97;2.65;;;;;;;;;;5088410;28;20070;-74
2023/09/01 11:28:23;;;;;;;7.68;3.00;;;;;;;;;;5090121;28;20036;-74
2023/09/01 11:30:53;;;;;;;7.55;3.20;;;;;;;;;;5086061;28;20123;-74
2023/09/01 11:33:22;;;;;;;5.50;3.05;;;;;;;;;;5090285;28;20051;-74
2023/09/01 11:35:49;;;;;;;5.75;3.25;;;;;;;;;;5087029;28;20499;-74
2023/09/01 11:38:21;;;;;;;7.25;3.63;;;;;;;;;;5071599;28;20070;-74
2023/09/01 11:40:48;;;;;;;6.75;3.58;;;;;;;;;;5081444;28;20044;-74
2023/09/01 11:43:14;;;;;;;6.05;3.70;;;;;;;;;;5085192;28;20127;-74
2023/09/01 11:45:47;;;;;;;6.28;3.75;;;;;;;;;;5087373;28;20047;-74
2023/09/01 11:48:14;;;;;;;10.90;4.43;;;;;;;;;;5083832;28;20501;-75
2023/09/01 11:50:45;;;;;;;8.23;4.50;;;;;;;;;;5070163;28;20073;-73
2023/09/01 11:53:21;;;;;;;9.10;4.60;;;;;;;;;;5088979;28;20048;-73
2023/09/01 11:55:47;;;;;;;8.13;4.07;;;;;;;;;;5083857;28;20036;-73
2023/09/01 11:58:13;;;;;;;5.70;3.70;;;;;;;;;;5086971;28;20114;-73
2023/09/01 12:00:39;;;;;;;7.18;4.07;;;;;;;;;;5067934;28;20108;-71
2023/09/01 12:03:06;;;;;;;8.88;4.60;;;;;;;;;;5091264;28;20044;-74
2023/09/01 12:05:41;;;;;;;8.95;4.65;;;;;;;;;;5084366;28;20055;-72
2023/09/01 12:08:08;;;;;;;8.30;4.53;;;;;;;;;;5086422;28;20032;-73
2023/09/01 12:10:35;;;;;;;9.45;4.72;;;;;;;;;;5084608;28;20040;-72
2023/09/01 12:13:07;;;;;;;12.27;4.93;;;;;;;;;;5085491;28;20068;-74
2023/09/01 12:15:34;;;;;;;7.35;4.65;;;;;;;;;;5079650;28;20487;-73
2023/09/01 12:18:19;;;;;;;10.50;4.85;;;;;;;;;;5086945;28;20134;-74
2023/09/01 12:20:45;;;;;;;10.68;5.20;;;;;;;;;;5086550;28;20051;-74
2023/09/01 12:23:11;;;;;;;7.60;5.07;;;;;;;;;;5085895;28;20043;-75
2023/09/01 12:25:37;;;;;;;6.47;4.78;;;;;;;;;;5070216;28;20097;-73
2023/09/01 12:28:03;;;;;;;8.60;4.60;;;;;;;;;;5084596;28;20526;-73
2023/09/01 12:30:29;;;;;;;10.07;4.85;;;;;;;;;;5082993;28;20048;-72
2023/09/01 12:32:55;;;;;;;7.70;4.43;;;;;;;;;;5089638;28;20097;-72
2023/09/01 12:35:21;;;;;;;8.15;5.00;;;;;;;;;;5088213;28;20052;-73
2023/09/01 12:37:47;;;;;;;7.80;4.78;;;;;;;;;;5089593;28;20058;-74
2023/09/01 12:40:13;;;;;;;9.13;4.72;;;;;;;;;;5089985;28;20127;-73
2023/09/01 12:42:39;;;;;;;8.25;4.82;;;;;;;;;;5070124;28;20048;-73
2023/09/01 12:45:05;;;;;;;7.80;4.60;;;;;;;;;;5088325;28;20047;-73
2023/09/01 12:47:31;;;;;;;13.30;5.22;;;;;;;;;;5090024;28;20043;-73
2023/09/01 12:49:58;;;;;;;7.43;4.32;;;;;;;;;;5088061;28;20044;-74
2023/09/01 12:52:24;;;;;;;7.65;4.28;;;;;;;;;;5087978;28;20044;-75
2023/09/01 12:54:50;;;;;;;10.80;4.70;;;;;;;;;;5085767;28;20043;-74
2023/09/01 12:57:16;;;;;;;6.55;4.47;;;;;;;;;;5085034;28;20068;-74
2023/09/01 12:59:42;;;;;;;9.90;4.05;;;;;;;;;;5090397;28;20068;-74
2023/09/01 13:02:08;;;;;;;8.27;4.50;;;;;;;;;;5087804;28;20911;-74
2023/09/01 13:04:34;;;;;;;9.88;4.55;;;;;;;;;;5087731;28;20085;-74
2023/09/01 13:07:00;;;;;;;9.20;4.15;;;;;;;;;;5088990;28;20077;-79
2023/09/01 13:09:29;;;;;;;6.68;4.30;;;;;;;;;;5096472;28;20088;-74
2023/09/01 13:11:55;;;;;;;10.25;4.55;;;;;;;;;;5071252;28;20048;-76
2023/09/01 13:14:21;;;;;;;8.90;4.90;;;;;;;;;;5071837;28;20101;-75
2023/09/01 13:16:47;;;;;;;6.57;4.45;;;;;;;;;;5086709;28;20039;-76
2023/09/01 13:19:13;;;;;;;9.10;4.65;;;;;;;;;;5089654;28;20044;-75
2023/09/01 13:21:39;;;;;;;9.38;4.20;;;;;;;;;;5092788;28;20059;-75
2023/09/01 13:24:05;;;;;;;10.52;4.40;;;;;;;;;;5095316;28;20051;-76
2023/09/01 13:26:31;;;;;;;9.40;4.30;;;;;;;;;;5091381;28;20120;-75
2023/09/01 13:28:58;;;;;;;7.25;4.07;;;;;;;;;;5087231;28;20063;-76
2023/09/01 13:31:24;;;;;;;7.65;4.35;;;;;;;;;;5088963;28;20048;-76
2023/09/01 13:33:50;;;;;;;9.02;4.22;;;;;;;;;;5073997;28;20052;-76
2023/09/01 13:36:16;;;;;;;10.45;4.88;;;;;;;;;;5088554;28;20044;-76
2023/09/01 13:38:42;;;;;;;9.50;5.07;;;;;;;;;;5074956;28;20860;-76
2023/09/01 13:41:08;;;;;;;8.07;4.20;;;;;;;;;;5091835;28;20135;-75
2023/09/01 13:43:35;;;;;;;8.70;4.60;;;;;;;;;;5086141;28;20040;-75
2023/09/01 13:46:17;;;;;;;9.07;4.47;;;;;;;;;;5088180;28;20074;-75
2023/09/01 13:48:43;;;;;;;8.10;4.38;;;;;;;;;;5069914;28;20491;-76
2023/09/01 13:51:09;;;;;;;8.45;4.40;;;;;;;;;;5089268;28;20048;-76
2023/09/01 13:53:35;;;;;;;7.57;4.38;;;;;;;;;;5091154;28;20036;-76
2023/09/01 13:56:01;;;;;;;8.38;4.35;;;;;;;;;;5091646;28;20071;-77
2023/09/01 13:58:27;;;;;;;7.80;4.10;;;;;;;;;;5072699;28;20275;-77
2023/09/01 14:00:54;;;;;;;10.32;4.75;;;;;;;;;;5072369;28;20452;-76
2023/09/01 14:03:20;;;;;;;9.50;5.03;;;;;;;;;;5089182;28;20527;-76
2023/09/01 14:05:46;;;;;;;8.52;4.40;;;;;;;;;;5090276;28;20134;-76
2023/09/01 14:08:12;;;;;;;6.57;4.30;;;;;;;;;;5069289;28;20075;-76
2023/09/01 14:10:38;;;;;;;9.43;4.40;;;;;;;;;;5072923;28;20543;-77
2023/09/01 14:13:04;;;;;;;4.88;4.38;;;;;;;;;;5075706;28;20080;-76
2023/09/01 14:15:31;;;;;;;8.85;5.22;;;;;;;;;;5088423;28;20055;-74
2023/09/01 14:17:57;;;;;;;8.27;4.55;;;;;;;;;;5093269;28;20058;-76
2023/09/01 14:20:25;;;;;;;8.27;4.20;;;;;;;;;;5090705;28;20360;-76
2023/09/01 14:22:52;;;;;;;10.13;4.70;;;;;;;;;;5097212;28;20055;-76
2023/09/01 14:25:18;;;;;;;8.55;4.50;;;;;;;;;;5088502;28;20040;-76
2023/09/01 14:27:44;;;;;;;10.20;4.20;;;;;;;;;;5092323;28;20086;-76
2023/09/01 14:30:10;;;;;;;6.85;4.40;;;;;;;;;;5082846;28;20048;-74
2023/09/01 14:32:36;;;;;;;6.88;3.92;;;;;;;;;;5074076;28;20051;-73
2023/09/01 14:35:02;;;;;;;5.43;3.80;;;;;;;;;;5087830;28;20052;-72
2023/09/01 14:37:28;;;;;;;9.43;4.60;;;;;;;;;;5093586;28;20039;-73
2023/09/01 14:39:54;;;;;;;7.03;3.90;;;;;;;;;;5099861;28;20391;-75
2023/09/01 14:42:20;;;;;;;5.60;4.20;;;;;;;;;;5073508;28;20177;-75